Time;durP1;ratioP1;P1;durP2;ratioP2;P2;SDS_P1;SDS_P2;PMS_P1;PMS_P2;Temp;Humidity;BMP_temperature;BMP_pressure;BME280_temperature;BME280_humidity;BME280_pressure;Samples;Min_cycle;Max_cycle;Signal;HPM_P1;HPM_P2
2022/09/09 00:06:53;;;;;;;1.73;1.25;;;24.80;51.60;;;;;;21004065;28;20048;-58
2022/09/09 00:17:02;;;;;;;1.48;1.05;;;24.70;51.90;;;;;;21002142;28;20045;-58
2022/09/09 00:27:29;;;;;;;2.92;1.15;;;24.80;51.80;;;;;;21001828;28;20048;-58
2022/09/09 00:37:34;;;;;;;2.00;1.20;;;24.70;52.10;;;;;;20999855;28;20522;-57
2022/09/09 00:47:53;;;;;;;1.55;0.90;;;24.40;53.20;;;;;;20981773;28;20044;-58
2022/09/09 00:57:55;;;;;;;0.93;0.80;;;24.40;53.40;;;;;;21000232;28;20090;-60
2022/09/09 01:08:01;;;;;;;2.50;1.25;;;24.30;53.80;;;;;;20998244;28;20052;-59
2022/09/09 01:18:12;;;;;;;2.40;1.88;;;24.30;54.00;;;;;;20997562;28;20128;-57
2022/09/09 01:28:25;;;;;;;1.10;0.75;;;24.30;54.10;;;;;;20996977;28;20408;-58
2022/09/09 01:38:31;;;;;;;1.65;0.73;;;24.20;54.30;;;;;;20979166;28;20070;-58
2022/09/09 01:48:33;;;;;;;1.92;0.80;;;24.20;54.40;;;;;;20995970;28;20084;-57
2022/09/09 01:58:35;;;;;;;1.50;0.80;;;24.10;54.40;;;;;;20995639;28;20135;-59
2022/09/09 02:08:48;;;;;;;2.70;0.85;;;24.10;54.40;;;;;;20995737;28;20053;-57
2022/09/09 02:19:01;;;;;;;2.15;0.85;;;24.10;54.60;;;;;;20994480;28;20044;-58
2022/09/09 02:29:09;;;;;;;0.93;0.70;;;23.90;54.80;;;;;;20994320;28;20408;-57
2022/09/09 02:39:12;;;;;;;2.10;1.00;;;24.00;55.00;;;;;;20993933;28;20511;-58
2022/09/09 02:49:31;;;;;;;2.83;0.98;;;23.90;54.90;;;;;;21006090;28;20056;-58
2022/09/09 02:59:34;;;;;;;1.20;0.85;;;23.90;55.10;;;;;;21008477;28;20049;-58
2022/09/09 03:09:37;;;;;;;2.53;1.00;;;23.80;55.20;;;;;;21007744;28;20056;-58
2022/09/09 03:19:39;;;;;;;3.10;0.80;;;23.90;54.90;;;;;;21008072;28;20400;-58
2022/09/09 03:29:42;;;;;;;0.85;0.75;;;24.00;55.10;;;;;;21007718;28;20135;-61
2022/09/09 03:39:45;;;;;;;1.60;1.00;;;23.90;55.50;;;;;;21005286;28;20078;-58
2022/09/09 03:49:48;;;;;;;1.47;1.10;;;23.70;56.20;;;;;;21005079;28;20131;-58
2022/09/09 03:59:49;;;;;;;1.58;0.85;;;23.70;56.10;;;;;;21004006;28;20044;-58
2022/09/09 04:09:52;;;;;;;3.83;1.63;;;23.80;55.50;;;;;;21003800;28;20106;-57
2022/09/09 04:19:53;;;;;;;2.00;1.07;;;23.80;55.20;;;;;;21002255;28;20044;-57
2022/09/09 04:29:57;;;;;;;1.20;0.90;;;23.70;55.40;;;;;;21000805;28;20057;-58
2022/09/09 04:40:01;;;;;;;2.38;1.30;;;23.70;55.40;;;;;;20982076;28;20052;-58
2022/09/09 04:50:07;;;;;;;1.52;0.88;;;23.70;55.50;;;;;;20982711;28;20068;-58
2022/09/09 05:00:10;;;;;;;;;;;23.50;55.80;;;;;;20999068;28;20048;-58
2022/09/09 05:10:13;;;;;;;1.98;1.33;;;23.50;55.40;;;;;;20997252;28;20023;-58
2022/09/09 05:20:16;;;;;;;2.38;1.08;;;23.40;55.60;;;;;;20997914;28;20052;-58
2022/09/09 05:30:19;;;;;;;1.63;1.30;;;23.40;55.90;;;;;;20997318;28;20465;-59
2022/09/09 05:40:21;;;;;;;;;;;23.40;55.30;;;;;;20997379;28;20060;-57
2022/09/09 05:50:23;;;;;;;2.03;1.30;;;23.50;54.80;;;;;;20995883;28;19927;-59
2022/09/09 06:00:26;;;;;;;5.13;1.40;;;23.40;54.60;;;;;;20995476;28;20048;-58
2022/09/09 06:10:28;;;;;;;1.77;1.03;;;23.40;53.70;;;;;;20995594;28;20086;-57
2022/09/09 06:20:30;;;;;;;1.92;1.00;;;23.40;53.40;;;;;;21003537;28;20053;-58
2022/09/09 06:30:32;;;;;;;2.15;1.10;;;23.40;53.10;;;;;;21011214;28;20401;-58
2022/09/09 06:40:35;;;;;;;3.17;1.33;;;23.40;52.90;;;;;;21010518;28;20087;-57
2022/09/09 06:50:36;;;;;;;;;;;23.40;52.50;;;;;;21009918;28;20139;-57
2022/09/09 07:00:38;;;;;;;2.38;1.20;;;23.50;52.00;;;;;;21009151;28;19920;-57
2022/09/09 07:10:40;;;;;;;4.03;1.08;;;23.60;51.50;;;;;;21007308;28;20544;-58
2022/09/09 07:20:42;;;;;;;7.93;2.83;;;23.80;50.70;;;;;;21006991;28;20051;-58
2022/09/09 07:30:57;;;;;;;5.32;1.23;;;23.90;50.40;;;;;;21005110;28;20106;-58
2022/09/09 07:41:13;;;;;;;2.53;0.80;;;24.00;49.70;;;;;;21005711;28;20083;-59
2022/09/09 07:51:18;;;;;;;1.88;0.90;;;24.20;48.50;;;;;;21004583;28;20139;-58
2022/09/09 08:01:27;;;;;;;3.83;1.90;;;24.30;47.80;;;;;;21003772;28;20076;-58
2022/09/09 08:11:30;;;;;;;2.25;1.13;;;24.60;47.30;;;;;;21002786;28;20048;-58
2022/09/09 08:21:33;;;;;;;1.92;1.13;;;24.80;46.60;;;;;;21002063;28;20045;-57
2022/09/09 08:31:44;;;;;;;3.10;2.22;;;25.10;45.60;;;;;;21001134;28;20075;-59
2022/09/09 08:41:50;;;;;;;1.50;0.77;;;25.30;45.00;;;;;;20999912;28;20098;-59
2022/09/09 08:51:55;;;;;;;1.90;1.00;;;25.40;44.00;;;;;;20999691;28;20508;-59
2022/09/09 09:02:22;;;;;;;2.30;1.13;;;25.60;43.60;;;;;;20998072;28;20041;-58
2022/09/09 09:12:40;;;;;;;4.28;1.77;;;25.80;43.10;;;;;;20998132;28;20090;-57
2022/09/09 09:22:50;;;;;;;3.00;1.67;;;26.00;43.10;;;;;;20998234;28;20544;-57
2022/09/09 09:32:58;;;;;;;2.10;0.82;;;26.30;41.10;;;;;;20997787;28;20048;-57
2022/09/09 09:43:01;;;;;;;2.97;1.60;;;26.50;40.30;;;;;;20995715;28;20075;-60
2022/09/09 09:53:06;;;;;;;2.35;0.88;;;26.80;41.80;;;;;;20995267;28;20623;-63
2022/09/09 10:03:32;;;;;;;2.85;0.80;;;27.00;40.00;;;;;;20994969;28;20080;-56
2022/09/09 10:13:39;;;;;;;2.83;1.00;;;27.20;39.50;;;;;;20994570;28;20131;-61
2022/09/09 10:23:53;;;;;;;2.15;0.85;;;27.10;37.50;;;;;;20994829;28;20056;-60
2022/09/09 10:34:17;;;;;;;1.50;0.70;;;27.20;36.60;;;;;;20992380;28;20051;-61
2022/09/09 10:44:35;;;;;;;3.58;0.50;;;27.60;36.40;;;;;;20993136;28;20421;-59
2022/09/09 10:55:00;;;;;;;1.73;0.80;;;27.80;35.20;;;;;;20974508;28;20131;-54
2022/09/09 11:05:14;;;;;;;57.63;52.13;;;27.80;34.90;;;;;;20995507;28;20135;-56
2022/09/09 11:15:36;;;;;;;25.70;23.20;;;27.90;35.50;;;;;;21004644;28;20127;-57
2022/09/09 11:25:43;;;;;;;29.73;26.52;;;28.10;35.30;;;;;;21209102;22;20049;-56
2022/09/09 11:35:59;;;;;;;2.33;1.83;;;28.10;34.90;;;;;;20838774;28;20128;-58
2022/09/09 11:46:02;;;;;;;2.25;1.00;;;28.50;34.30;;;;;;20839804;28;20130;-59
2022/09/09 11:56:08;;;;;;;3.97;1.10;;;28.70;33.60;;;;;;20839490;28;20489;-56
2022/09/09 12:06:13;;;;;;;3.75;1.77;;;28.90;33.70;;;;;;20820675;28;20140;-57
2022/09/09 12:16:38;;;;;;;2.67;1.02;;;29.00;33.90;;;;;;20838557;28;20557;-57
2022/09/09 12:27:00;;;;;;;2.83;0.90;;;29.10;35.50;;;;;;20836213;28;20049;-56
2022/09/09 12:37:35;;;;;;;2.55;0.88;;;29.40;34.50;;;;;;20836740;28;20099;-57
2022/09/09 12:47:45;;;;;;;2.20;0.98;;;29.50;34.30;;;;;;20818278;28;20049;-56
2022/09/09 12:57:50;;;;;;;1.17;0.95;;;29.60;33.50;;;;;;20834101;28;20056;-57
2022/09/09 13:08:00;;;;;;;1.42;0.70;;;29.80;32.90;;;;;;20833827;28;20511;-56
2022/09/09 13:18:08;;;;;;;1.08;0.77;;;30.00;32.50;;;;;;20833207;28;20045;-57
2022/09/09 13:28:22;;;;;;;1.08;0.57;;;30.00;32.20;;;;;;20831494;28;20565;-58
2022/09/09 13:38:27;;;;;;;1.27;0.60;;;30.10;30.90;;;;;;20832238;28;20045;-56
2022/09/09 13:48:32;;;;;;;0.63;0.40;;;30.20;30.60;;;;;;20831831;28;20058;-55
2022/09/09 13:58:34;;;;;;;2.92;1.30;;;30.20;31.00;;;;;;20830760;28;20128;-56
2022/09/09 14:08:36;;;;;;;0.80;0.70;;;30.40;30.90;;;;;;20830728;28;20053;-57
2022/09/09 14:18:38;;;;;;;2.00;0.95;;;30.50;30.50;;;;;;20830394;28;20052;-58
2022/09/09 14:28:40;;;;;;;1.60;0.98;;;30.60;30.60;;;;;;20829417;28;20068;-59
2022/09/09 14:38:42;;;;;;;3.95;0.80;;;30.60;30.70;;;;;;20831472;28;20053;-56
2022/09/09 14:48:45;;;;;;;1.27;0.80;;;30.60;30.60;;;;;;20844497;28;20045;-58
2022/09/09 14:58:48;;;;;;;2.70;0.90;;;30.60;30.40;;;;;;20843963;28;20384;-56
2022/09/09 15:08:52;;;;;;;1.42;0.82;;;30.70;30.40;;;;;;20844268;28;20504;-56
2022/09/09 15:18:56;;;;;;;1.30;0.82;;;30.70;31.90;;;;;;20824879;28;20156;-58
2022/09/09 15:29:01;;;;;;;1.23;0.75;;;30.70;31.90;;;;;;20841873;28;20061;-58
2022/09/09 15:39:06;;;;;;;2.05;0.85;;;30.80;31.40;;;;;;20841067;28;20045;-57
2022/09/09 15:49:08;;;;;;;3.13;1.30;;;30.70;31.60;;;;;;20840104;28;20374;-57
2022/09/09 15:59:11;;;;;;;2.80;0.90;;;30.90;31.70;;;;;;20839893;28;20083;-57
2022/09/09 16:09:12;;;;;;;0.70;0.60;;;30.90;31.20;;;;;;20838182;28;20056;-58
2022/09/09 16:19:14;;;;;;;0.57;0.50;;;31.00;31.00;;;;;;20837755;28;20045;-58
2022/09/09 16:29:17;;;;;;;1.30;0.80;;;30.90;31.40;;;;;;20835312;28;20061;-55
2022/09/09 16:39:20;;;;;;;2.38;0.80;;;30.90;31.60;;;;;;20834823;28;20161;-59
2022/09/09 16:49:22;;;;;;;1.13;0.73;;;31.00;31.30;;;;;;20835083;28;20049;-57
2022/09/09 16:59:24;;;;;;;1.60;0.82;;;30.80;31.30;;;;;;20834504;28;20050;-57
2022/09/09 17:09:29;;;;;;;1.13;0.50;;;30.80;31.60;;;;;;20833822;28;20049;-59
2022/09/09 17:19:31;;;;;;;0.93;0.60;;;30.60;31.70;;;;;;20833401;28;20474;-57
2022/09/09 17:29:35;;;;;;;1.50;0.73;;;30.60;31.80;;;;;;20831891;28;20413;-57
2022/09/09 17:39:37;;;;;;;1.90;0.88;;;30.50;32.10;;;;;;20830984;28;20053;-55
2022/09/09 17:49:39;;;;;;;2.55;1.45;;;30.40;32.00;;;;;;20827470;28;20053;-57
2022/09/09 17:59:41;;;;;;;2.60;0.85;;;30.30;32.30;;;;;;20827540;28;20056;-58
2022/09/09 18:09:43;;;;;;;3.97;1.10;;;30.20;32.70;;;;;;20829062;28;20124;-57
2022/09/09 18:19:44;;;;;;;4.03;2.60;;;30.10;32.70;;;;;;20825330;28;20555;-58
2022/09/09 18:29:47;;;;;;;2.42;1.42;;;29.90;33.40;;;;;;20845496;28;20065;-56
2022/09/09 18:39:49;;;;;;;3.22;2.00;;;29.60;34.20;;;;;;20845591;28;20077;-58
2022/09/09 18:49:50;;;;;;;5.75;2.95;;;29.60;34.60;;;;;;20843905;28;20085;-58
2022/09/09 18:59:54;;;;;;;4.40;1.27;;;29.40;35.00;;;;;;20842908;28;20056;-56
2022/09/09 19:09:55;;;;;;;5.80;2.58;;;29.30;35.40;;;;;;20842306;28;20045;-59
2022/09/09 19:19:57;;;;;;;6.28;3.30;;;29.10;35.70;;;;;;20823755;28;20053;-59
2022/09/09 19:29:58;;;;;;;5.93;3.17;;;29.00;36.10;;;;;;20839254;28;20053;-57
2022/09/09 19:40:00;;;;;;;4.70;2.17;;;28.60;36.90;;;;;;20840466;28;20134;-57
2022/09/09 19:50:04;;;;;;;5.43;2.88;;;28.60;37.10;;;;;;20840048;28;20068;-58
2022/09/09 20:00:07;;;;;;;3.38;2.03;;;28.50;37.00;;;;;;20838502;28;20053;-58
2022/09/09 20:10:09;;;;;;;4.45;2.50;;;28.30;36.10;;;;;;20838449;28;20084;-60
2022/09/09 20:20:11;;;;;;;9.35;3.28;;;28.30;36.30;;;;;;20837119;28;20111;-59
2022/09/09 20:30:13;;;;;;;3.28;2.05;;;28.20;36.40;;;;;;20836237;28;20053;-57
2022/09/09 20:40:15;;;;;;;9.52;3.33;;;28.00;36.50;;;;;;20818936;28;20391;-60
2022/09/09 20:50:17;;;;;;;10.27;5.88;;;27.80;36.90;;;;;;20834897;28;20053;-58
2022/09/09 21:00:18;;;;;;;8.80;4.80;;;27.70;36.90;;;;;;20834673;28;20053;-61
2022/09/09 21:10:21;;;;;;;7.95;3.47;;;27.70;36.30;;;;;;20833824;28;20095;-59
2022/09/09 21:20:24;;;;;;;9.25;3.50;;;27.70;36.20;;;;;;20833165;28;20100;-60
2022/09/09 21:30:28;;;;;;;4.45;2.00;;;27.50;36.70;;;;;;20832392;28;20069;-61
2022/09/09 21:40:29;;;;;;;10.82;3.35;;;27.30;36.20;;;;;;20831772;28;20053;-56
2022/09/09 21:50:39;;;;;;;3.35;2.28;;;27.20;36.00;;;;;;20831230;28;20068;-59
2022/09/09 22:00:45;;;;;;;4.38;2.10;;;27.30;33.90;;;;;;20831631;28;20052;-59
2022/09/09 22:10:47;;;;;;;3.65;1.33;;;27.30;33.80;;;;;;20831020;28;20497;-59
2022/09/09 22:20:49;;;;;;;4.78;1.52;;;27.30;33.10;;;;;;20830996;28;20121;-60
2022/09/09 22:30:51;;;;;;;2.20;1.40;;;27.20;32.90;;;;;;20829337;28;20072;-61
2022/09/09 22:40:53;;;;;;;1.80;0.80;;;27.10;33.00;;;;;;20830665;28;20049;-57
2022/09/09 22:51:03;;;;;;;2.17;0.80;;;27.10;33.10;;;;;;20830348;28;20050;-60
2022/09/09 23:01:13;;;;;;;3.70;0.77;;;27.00;33.00;;;;;;20835153;28;20133;-61
2022/09/09 23:11:16;;;;;;;2.28;0.90;;;27.00;33.00;;;;;;20843195;28;20062;-61
2022/09/09 23:21:18;;;;;;;4.47;1.10;;;26.90;33.10;;;;;;20843214;28;20099;-56
2022/09/09 23:31:23;;;;;;;1.63;0.80;;;26.80;33.30;;;;;;20841454;28;20068;-59
2022/09/09 23:41:25;;;;;;;2.90;1.20;;;26.60;33.80;;;;;;20840804;28;20045;-57
2022/09/09 23:51:29;;;;;;;5.15;1.40;;;26.60;34.50;;;;;;20840948;28;20408;-58
